Burevestnik Airport


Codes: UHSB/BVV
Name: Burevestnik Airport
City: Iturup Island
Country: Russia
Elevation: 79 ft.
Wikipedia:

Photos at Burevestnik Airport


   Photos courtesy of SpottingLog. You can add your own sightings and photos by signing up for a free trial today.



No photos found.

Weather at Burevestnik Airport


Time (UTC)DescriptionTempratureWindCloud coverageVisibilityPressureHumidity
16-Jun-2024 09:00Overcast Clouds15°C11 mph, N100%0m1005hPa98%
16-Jun-2024 12:00Light Rain14°C9 mph, N100%0m1005hPa99%
16-Jun-2024 15:00Light Rain12°C9 mph, N99%0m1005hPa99%
16-Jun-2024 18:00Moderate Rain11°C11 mph, N99%0m1004hPa99%
16-Jun-2024 21:00Light Rain11°C11 mph, N97%0m1005hPa98%
17-Jun-2024 00:00Moderate Rain12°C13 mph, N96%0m1004hPa99%
17-Jun-2024 03:00Moderate Rain11°C9 mph, N98%0m1003hPa98%
17-Jun-2024 06:00Light Rain11°C7 mph, N92%0m1004hPa98%
17-Jun-2024 09:00Light Rain11°C4 mph, N98%0m1005hPa98%
17-Jun-2024 12:00Overcast Clouds10°C7 mph, N96%0m1006hPa98%
17-Jun-2024 15:00Broken Clouds10°C7 mph, N74%0m1006hPa98%
17-Jun-2024 18:00Broken Clouds10°C9 mph, N70%0m1006hPa99%
17-Jun-2024 21:00Light Rain11°C13 mph, N83%0m1006hPa96%
18-Jun-2024 00:00Overcast Clouds11°C13 mph, N87%0m1006hPa92%
18-Jun-2024 03:00Overcast Clouds13°C11 mph, N99%0m1006hPa88%
18-Jun-2024 06:00Overcast Clouds14°C7 mph, SE98%10000m1005hPa81%
18-Jun-2024 09:00Overcast Clouds11°C11 mph, N99%0m1005hPa95%
18-Jun-2024 12:00Overcast Clouds11°C9 mph, N99%0m1005hPa98%
18-Jun-2024 15:00Overcast Clouds10°C7 mph, N93%0m1005hPa98%
18-Jun-2024 18:00Overcast Clouds12°C4 mph, SW97%1285m1005hPa95%
18-Jun-2024 21:00Overcast Clouds13°C4 mph, W96%116m1006hPa95%
19-Jun-2024 00:00Light Rain12°C7 mph, W97%111m1006hPa99%
19-Jun-2024 03:00Moderate Rain11°C9 mph, NW100%165m1007hPa97%
19-Jun-2024 06:00Overcast Clouds11°C11 mph, NW95%4066m1008hPa92%
19-Jun-2024 09:00Scattered Clouds9°C9 mph, NW48%10000m1009hPa89%
19-Jun-2024 12:00Scattered Clouds8°C7 mph, NW35%10000m1010hPa86%
19-Jun-2024 15:00Scattered Clouds8°C7 mph, NW44%10000m1011hPa87%
19-Jun-2024 18:00Broken Clouds8°C7 mph, NW58%10000m1011hPa89%
19-Jun-2024 21:00Broken Clouds10°C7 mph, NW84%10000m1012hPa81%
20-Jun-2024 00:00Overcast Clouds12°C4 mph, N89%10000m1012hPa74%
20-Jun-2024 03:00Broken Clouds13°C2 mph, W59%10000m1012hPa71%
20-Jun-2024 06:00Scattered Clouds12°C2 mph, SE41%10000m1012hPa76%
20-Jun-2024 09:00Overcast Clouds11°C7 mph, SE100%10000m1012hPa83%
20-Jun-2024 12:00Light Rain9°C9 mph, SE100%10000m1012hPa91%
20-Jun-2024 15:00Light Rain9°C9 mph, SE100%3309m1011hPa97%
20-Jun-2024 18:00Light Rain9°C9 mph, SE100%181m1009hPa98%
20-Jun-2024 21:00Moderate Rain9°C9 mph, N100%0m1008hPa98%
21-Jun-2024 00:00Light Rain9°C7 mph, N100%0m1007hPa97%
21-Jun-2024 03:00Light Rain10°C7 mph, E100%1670m1006hPa97%
21-Jun-2024 06:00Light Rain10°C4 mph, E100%5189m1006hPa97%